Airfield :
LOGIN :

Register | Disclaimer

   EN    FR    IT 

 










Legend :    VFR   Marginal VFR   IFR   Intensive IFR   Very Intensive IFR
Visi :
Ceiling :
>= 8 km
>= 3000ft
5 to 8 km
1000 to 3000 ft
1500m to 5 km
500 to 1000 ft
800 to 1500m
200 to 500 ft
< 800m
< 200 ft
Symbols :   Thunderstorms  Fog  Heavy snow  Heavy precipitations  Wind > 20 kt
SIGMETs :     Misc.  Thunderstorms  Icing  Turbulence  Mountain Waves  Volcanic Ashes







- Airport Elevation : 464 ft
- IATA code : EVX
- Download approach charts


LFOE - Evreux

CURRENT METAR :
  • 241330Z AUTO 13008KT 090V170 CAVOK 23/13 Q1019

EXPIRED METARs :
  • 241300Z AUTO 14009KT CAVOK 22/12 Q1019
  • 241230Z AUTO 14009KT 090V170 CAVOK 22/13 Q1019
  • 241200Z AUTO 15008KT 100V190 CAVOK 22/12 Q1019
  • 241130Z AUTO 14007KT 110V180 CAVOK 21/12 Q1020
  • 241100Z AUTO 14009KT 110V180 CAVOK 21/12 Q1020

TAF TAF LFOE
Valid from the 24 at 09:00 until the 25 at 09:00 UTC


240800Z 2409/2509 12004KT CAVOK
TEMPO 2503/2506 4000 BR
No reported NOTAMs for that airfield.



MET'MAP, your aeronautical weather chart ! - Copyright ORBIFLY December 2007 - Disclaimer

ORBIFLY MET'MAP TEAM :

Programming & Development : Alexandra Zaïnal
Concept & Development : Baudouin d'Aumeries
Co-Development & Prog : Marc-Olivier Méhu
Technical & hardware support : Manuel Goepfert

Contact : metmap@orbifly.com




SOURCES & CREDITS :

   NOAA